Bancroft, Michigan
Current Conditions -  °F | °C
As of 8:14 AM on Thursday 27 Nov 2014 (Local Time) from KRNP Reporting Station
Overcast Overcast  
Wind Chill: 22°   Ceiling: 4100
Heat Index: 29°   Visibility: 7mi
Dew Point: 25°   Wind: 8mph
Humidity: 83%   Direction: 290°WNW
Pressure: 30.14"   Gusts: NA
Location:  42.88°N, 84.06°W
Report Text: KRNP 271314Z AUTO 29007KT 7SM SCT014 OVC041 M01/M04 A3014 RMK AO2 T10151041
Loading
Personal Weather Stations






























Interactive Weather Map New forecast layout! Learn more

10-Day Weather Forecast

Advertisements
Track Severe Weather on mobile